Time;durP1;ratioP1;P1;durP2;ratioP2;P2;SDS_P1;SDS_P2;PMS_P1;PMS_P2;Temp;Humidity;BMP_temperature;BMP_pressure;BME280_temperature;BME280_humidity;BME280_pressure;Samples;Min_cycle;Max_cycle;Signal;HPM_P1;HPM_P2
2023/01/19 00:20:04;;;;;;;17.70;9.73;;;;;;;;;;6147361;22;1400923;-89
2023/01/19 00:23:10;;;;;;;19.73;10.80;;;;;;;;;;6187352;23;20359;-91
2023/01/19 00:26:21;;;;;;;17.30;9.70;;;;;;;;;;6186686;23;20164;-90
2023/01/19 00:29:29;;;;;;;17.83;9.47;;;;;;;;;;6188027;23;20232;-88
2023/01/19 00:32:36;;;;;;;19.03;10.47;;;;;;;;;;6206556;23;20176;-89
2023/01/19 00:35:44;;;;;;;16.93;9.27;;;;;;;;;;6187161;23;20172;-88
2023/01/19 00:38:49;;;;;;;19.20;9.73;;;;;;;;;;6186955;23;20259;-90
2023/01/19 00:45:18;;;;;;;17.03;9.93;;;;;;;;;;6187504;23;20195;-89
2023/01/19 00:48:28;;;;;;;23.47;9.93;;;;;;;;;;6186757;23;20229;-89
2023/01/19 00:51:35;;;;;;;19.27;10.37;;;;;;;;;;6187685;23;20227;-89
2023/01/19 00:54:40;;;;;;;19.17;10.77;;;;;;;;;;6186291;23;20168;-91
2023/01/19 00:57:45;;;;;;;18.20;9.90;;;;;;;;;;6187496;23;20155;-90
2023/01/19 01:00:50;;;;;;;18.73;9.97;;;;;;;;;;6187199;23;20243;-92
2023/01/19 01:03:56;;;;;;;19.67;9.50;;;;;;;;;;6187255;23;20195;-90
2023/01/19 01:07:03;;;;;;;18.70;9.70;;;;;;;;;;6186186;23;20176;-89
2023/01/19 01:10:09;;;;;;;18.20;9.80;;;;;;;;;;6186126;23;20229;-90
2023/01/19 01:13:15;;;;;;;18.97;11.40;;;;;;;;;;6186429;23;20207;-90
2023/01/19 01:16:21;;;;;;;20.43;11.10;;;;;;;;;;6187081;23;20175;-91
2023/01/19 01:19:28;;;;;;;20.83;10.17;;;;;;;;;;6187408;23;20191;-90
2023/01/19 01:22:34;;;;;;;18.07;10.33;;;;;;;;;;6185890;23;20501;-89
2023/01/19 01:25:41;;;;;;;21.07;10.53;;;;;;;;;;6187522;23;20200;-91
2023/01/19 01:28:48;;;;;;;20.50;11.03;;;;;;;;;;6187634;23;20171;-90
2023/01/19 01:31:53;;;;;;;18.47;10.50;;;;;;;;;;6187485;23;20232;-90
2023/01/19 01:34:59;;;;;;;18.80;10.67;;;;;;;;;;6189041;23;20180;-91
2023/01/19 01:38:19;;;;;;;20.60;10.87;;;;;;;;;;6187536;23;20167;-88
2023/01/19 01:41:26;;;;;;;20.43;10.97;;;;;;;;;;6188021;23;20179;-89
2023/01/19 01:44:52;;;;;;;20.63;11.50;;;;;;;;;;6187813;23;20239;-91
2023/01/19 01:48:00;;;;;;;20.07;10.27;;;;;;;;;;6189595;23;20168;-90
2023/01/19 01:51:27;;;;;;;18.77;10.77;;;;;;;;;;6188616;23;20172;-88
2023/01/19 01:54:34;;;;;;;19.13;10.67;;;;;;;;;;6187889;23;20225;-88
2023/01/19 01:57:42;;;;;;;20.20;10.37;;;;;;;;;;6186436;23;20168;-90
2023/01/19 02:04:24;;;;;;;18.20;10.13;;;;;;;;;;6094861;23;20211;-91
2023/01/19 02:14:20;;;;;;;20.40;10.40;;;;;;;;;;6101528;23;20220;-89
2023/01/19 02:17:25;;;;;;;21.07;11.00;;;;;;;;;;6182933;23;20188;-90
2023/01/19 02:20:32;;;;;;;19.03;10.67;;;;;;;;;;6169668;23;20203;-88
2023/01/19 02:23:43;;;;;;;18.87;10.50;;;;;;;;;;6171345;23;20151;-91
2023/01/19 02:26:49;;;;;;;20.83;11.13;;;;;;;;;;6172472;23;20172;-88
2023/01/19 02:29:54;;;;;;;18.50;10.37;;;;;;;;;;6171356;23;20216;-90
2023/01/19 02:32:59;;;;;;;21.87;11.20;;;;;;;;;;6171274;23;20185;-89
2023/01/19 02:36:06;;;;;;;22.60;11.20;;;;;;;;;;6169945;23;20514;-89
2023/01/19 02:39:15;;;;;;;19.80;10.63;;;;;;;;;;6169642;23;20228;-91
2023/01/19 02:42:22;;;;;;;21.83;10.83;;;;;;;;;;6168634;23;20172;-89
2023/01/19 02:45:27;;;;;;;18.10;9.47;;;;;;;;;;6170327;23;20265;-90
2023/01/19 02:48:32;;;;;;;19.30;9.67;;;;;;;;;;6169782;23;20172;-89
2023/01/19 02:51:38;;;;;;;19.60;10.57;;;;;;;;;;6170133;23;20172;-88
2023/01/19 02:54:49;;;;;;;23.83;11.10;;;;;;;;;;6169727;23;20184;-93
2023/01/19 02:57:59;;;;;;;20.77;10.67;;;;;;;;;;6168184;23;20243;-87
2023/01/19 03:01:11;;;;;;;20.00;10.20;;;;;;;;;;6168793;23;20234;-90
2023/01/19 03:04:21;;;;;;;20.83;9.87;;;;;;;;;;6168514;23;20187;-88
2023/01/19 03:07:31;;;;;;;20.97;9.77;;;;;;;;;;6168632;23;20492;-90
2023/01/19 03:10:56;;;;;;;21.07;10.60;;;;;;;;;;6169514;23;20169;-89
2023/01/19 03:14:07;;;;;;;21.23;10.50;;;;;;;;;;6171063;23;20169;-90
2023/01/19 03:17:13;;;;;;;24.27;10.93;;;;;;;;;;6170901;23;20172;-89
2023/01/19 03:20:23;;;;;;;20.40;9.90;;;;;;;;;;6182481;23;20199;-87
2023/01/19 03:23:31;;;;;;;19.17;9.90;;;;;;;;;;6182886;23;20208;-89
2023/01/19 03:26:39;;;;;;;21.60;10.17;;;;;;;;;;6183290;23;20164;-90
2023/01/19 03:29:49;;;;;;;25.93;10.90;;;;;;;;;;6183267;23;20201;-87
2023/01/19 03:32:56;;;;;;;19.60;9.83;;;;;;;;;;6181363;23;20221;-88
2023/01/19 03:36:04;;;;;;;19.57;10.33;;;;;;;;;;6181318;23;20172;-90
2023/01/19 03:39:10;;;;;;;19.70;10.40;;;;;;;;;;6181646;23;20163;-89
2023/01/19 03:42:17;;;;;;;21.23;10.77;;;;;;;;;;6182900;23;20176;-89
2023/01/19 03:45:24;;;;;;;20.53;9.27;;;;;;;;;;6182288;23;20188;-90
2023/01/19 03:48:29;;;;;;;19.90;9.67;;;;;;;;;;6183029;23;20220;-90
2023/01/19 03:51:36;;;;;;;18.43;9.17;;;;;;;;;;6182755;23;20196;-94
2023/01/19 03:54:41;;;;;;;19.10;9.17;;;;;;;;;;6183148;23;20147;-88
2023/01/19 03:57:46;;;;;;;19.47;9.37;;;;;;;;;;6181263;23;20176;-90
2023/01/19 04:00:53;;;;;;;20.87;9.90;;;;;;;;;;6183034;23;20739;-91
2023/01/19 04:03:58;;;;;;;20.03;10.23;;;;;;;;;;6183869;23;20215;-88
2023/01/19 04:07:03;;;;;;;19.20;10.33;;;;;;;;;;6182636;23;20172;-88
2023/01/19 04:10:11;;;;;;;23.40;10.57;;;;;;;;;;6182546;23;20229;-90
2023/01/19 04:13:16;;;;;;;19.43;10.33;;;;;;;;;;6181565;23;20178;-89
2023/01/19 04:16:23;;;;;;;23.07;10.73;;;;;;;;;;6180504;23;20207;-88
2023/01/19 04:19:27;;;;;;;19.17;10.37;;;;;;;;;;6183215;23;20260;-89
2023/01/19 04:22:33;;;;;;;18.87;10.03;;;;;;;;;;6183735;23;20215;-88
2023/01/19 04:25:39;;;;;;;21.37;10.20;;;;;;;;;;6182374;23;20219;-88
2023/01/19 04:28:44;;;;;;;23.57;10.57;;;;;;;;;;6184744;23;20184;-89
2023/01/19 04:31:50;;;;;;;20.20;9.67;;;;;;;;;;6185174;23;20163;-89
2023/01/19 04:34:56;;;;;;;23.17;10.20;;;;;;;;;;6185452;23;20174;-88
2023/01/19 04:38:01;;;;;;;22.27;10.43;;;;;;;;;;6184995;23;20168;-89
2023/01/19 04:41:06;;;;;;;22.13;10.87;;;;;;;;;;6182539;23;20515;-91
2023/01/19 04:44:11;;;;;;;24.53;10.27;;;;;;;;;;6182127;23;20143;-91
2023/01/19 04:47:18;;;;;;;25.60;11.17;;;;;;;;;;6182814;23;20184;-92
2023/01/19 04:50:24;;;;;;;21.30;10.10;;;;;;;;;;6181159;23;20219;-88
2023/01/19 04:53:29;;;;;;;19.67;9.97;;;;;;;;;;6181553;23;20188;-89
2023/01/19 04:56:34;;;;;;;23.70;10.10;;;;;;;;;;6180116;23;20487;-89
2023/01/19 04:59:39;;;;;;;20.37;10.33;;;;;;;;;;6183023;23;20152;-91
2023/01/19 05:02:52;;;;;;;24.97;10.03;;;;;;;;;;6181768;23;20171;-90
2023/01/19 05:06:01;;;;;;;23.70;10.20;;;;;;;;;;6183167;23;20199;-89
2023/01/19 05:09:07;;;;;;;24.53;9.10;;;;;;;;;;6183159;23;20176;-91
2023/01/19 05:12:13;;;;;;;24.50;9.60;;;;;;;;;;6181577;23;20159;-88
2023/01/19 05:15:18;;;;;;;16.67;8.40;;;;;;;;;;6182120;23;20156;-90
2023/01/19 05:18:25;;;;;;;27.17;9.63;;;;;;;;;;6185317;23;20167;-90
2023/01/19 05:21:30;;;;;;;24.17;9.70;;;;;;;;;;6184739;23;20164;-89
2023/01/19 05:24:35;;;;;;;19.73;8.40;;;;;;;;;;6182100;23;20233;-88
2023/01/19 05:27:41;;;;;;;22.47;10.20;;;;;;;;;;6189565;23;20212;-89
2023/01/19 05:30:47;;;;;;;23.77;8.93;;;;;;;;;;6190255;23;20216;-89
2023/01/19 05:33:54;;;;;;;22.67;9.60;;;;;;;;;;6182186;23;20744;-91
2023/01/19 05:37:01;;;;;;;26.17;10.03;;;;;;;;;;6184675;23;20591;-90
2023/01/19 05:40:08;;;;;;;24.87;9.57;;;;;;;;;;6182787;23;20171;-87
2023/01/19 05:43:13;;;;;;;22.03;8.67;;;;;;;;;;6182048;23;20160;-88
2023/01/19 05:46:18;;;;;;;17.43;7.23;;;;;;;;;;6183201;23;20179;-89
2023/01/19 05:49:25;;;;;;;19.97;8.97;;;;;;;;;;6184016;23;20172;-91
2023/01/19 05:52:30;;;;;;;23.47;8.37;;;;;;;;;;6181300;23;20313;-89
2023/01/19 05:55:35;;;;;;;30.10;12.27;;;;;;;;;;6179884;23;20220;-90
2023/01/19 05:58:40;;;;;;;19.43;8.43;;;;;;;;;;6180860;23;20187;-91
2023/01/19 06:01:46;;;;;;;26.43;9.23;;;;;;;;;;6179532;23;20334;-89
2023/01/19 06:04:53;;;;;;;22.33;9.60;;;;;;;;;;6182796;23;20216;-92
2023/01/19 06:07:58;;;;;;;20.07;9.33;;;;;;;;;;6182561;23;20164;-91
2023/01/19 06:11:06;;;;;;;20.67;8.83;;;;;;;;;;6181605;23;20167;-89
2023/01/19 06:14:12;;;;;;;21.27;8.80;;;;;;;;;;6182653;23;20171;-89
2023/01/19 06:17:21;;;;;;;21.77;8.90;;;;;;;;;;6181961;23;20171;-91
2023/01/19 06:20:28;;;;;;;26.83;9.90;;;;;;;;;;6173460;23;20212;-88
2023/01/19 06:23:34;;;;;;;24.10;9.57;;;;;;;;;;6169624;23;20168;-91
2023/01/19 06:26:40;;;;;;;30.83;10.30;;;;;;;;;;6168565;23;20230;-89
2023/01/19 06:29:45;;;;;;;22.33;8.90;;;;;;;;;;6170624;23;20168;-91
2023/01/19 06:32:50;;;;;;;23.07;9.63;;;;;;;;;;6170749;23;20180;-90
2023/01/19 06:35:57;;;;;;;17.57;7.87;;;;;;;;;;6177017;23;20161;-90
2023/01/19 06:39:04;;;;;;;23.83;9.20;;;;;;;;;;6174802;23;20247;-88
2023/01/19 06:42:13;;;;;;;25.53;8.90;;;;;;;;;;6173409;23;20504;-90
2023/01/19 06:45:18;;;;;;;24.53;9.10;;;;;;;;;;6170616;23;20192;-91
2023/01/19 06:48:23;;;;;;;26.43;9.53;;;;;;;;;;6174053;23;20167;-90
2023/01/19 06:51:30;;;;;;;21.07;8.63;;;;;;;;;;6174978;23;20246;-88
2023/01/19 06:54:36;;;;;;;19.80;9.00;;;;;;;;;;6174841;23;20544;-93
2023/01/19 06:57:41;;;;;;;25.23;8.83;;;;;;;;;;6175648;23;20169;-92
2023/01/19 07:00:47;;;;;;;24.13;9.13;;;;;;;;;;6174064;23;20165;-90
2023/01/19 07:03:53;;;;;;;24.90;9.37;;;;;;;;;;6174787;23;20156;-91
2023/01/19 07:07:00;;;;;;;24.37;10.43;;;;;;;;;;6175502;23;20192;-90
2023/01/19 07:10:06;;;;;;;24.37;9.90;;;;;;;;;;6172459;23;20172;-91
2023/01/19 07:13:12;;;;;;;21.30;9.57;;;;;;;;;;6171634;23;20180;-90
2023/01/19 07:16:18;;;;;;;21.53;8.77;;;;;;;;;;6171374;23;20173;-88
2023/01/19 07:19:25;;;;;;;22.83;9.67;;;;;;;;;;6184350;23;20231;-89
2023/01/19 07:22:33;;;;;;;23.93;9.47;;;;;;;;;;6188617;23;20221;-91
2023/01/19 07:25:38;;;;;;;22.27;8.77;;;;;;;;;;6185100;23;20658;-90
2023/01/19 07:28:43;;;;;;;22.03;9.37;;;;;;;;;;6184487;23;20171;-91
2023/01/19 07:31:49;;;;;;;24.47;10.30;;;;;;;;;;6185133;23;20164;-88
2023/01/19 07:34:54;;;;;;;47.50;14.60;;;;;;;;;;6185296;23;20175;-89
2023/01/19 07:38:02;;;;;;;32.03;14.43;;;;;;;;;;6188086;23;20233;-88
2023/01/19 07:44:27;;;;;;;27.77;10.60;;;;;;;;;;6186320;23;20272;-92
2023/01/19 07:50:52;;;;;;;23.50;10.50;;;;;;;;;;6184550;23;20168;-89
2023/01/19 07:54:02;;;;;;;24.93;10.23;;;;;;;;;;6187285;23;20209;-90
2023/01/19 07:57:08;;;;;;;25.67;9.73;;;;;;;;;;6185942;23;20180;-91
2023/01/19 08:00:14;;;;;;;25.90;10.93;;;;;;;;;;6184475;23;20179;-91
2023/01/19 08:03:20;;;;;;;52.00;16.10;;;;;;;;;;6183526;23;20155;-89
2023/01/19 08:06:27;;;;;;;33.83;14.60;;;;;;;;;;6182388;23;20194;-87
2023/01/19 08:09:34;;;;;;;50.33;15.00;;;;;;;;;;6183424;23;20208;-93
2023/01/19 08:12:40;;;;;;;37.37;13.27;;;;;;;;;;6184691;23;20163;-91
2023/01/19 08:15:45;;;;;;;26.30;10.93;;;;;;;;;;6184056;23;20196;-91
2023/01/19 08:18:53;;;;;;;34.33;13.60;;;;;;;;;;6183990;23;20175;-90
2023/01/19 08:21:58;;;;;;;46.63;22.73;;;;;;;;;;6183916;23;20164;-89
2023/01/19 08:25:05;;;;;;;26.43;11.63;;;;;;;;;;6183479;23;20168;-89
2023/01/19 08:28:11;;;;;;;25.67;11.37;;;;;;;;;;6181791;23;20171;-89
2023/01/19 08:31:16;;;;;;;30.03;11.23;;;;;;;;;;6183857;23;20211;-88
2023/01/19 08:34:21;;;;;;;27.50;11.67;;;;;;;;;;6185088;23;20244;-91
2023/01/19 08:37:28;;;;;;;32.40;12.13;;;;;;;;;;6187558;23;20171;-90
2023/01/19 08:40:36;;;;;;;28.27;11.90;;;;;;;;;;6181467;23;20167;-89
2023/01/19 08:43:43;;;;;;;31.30;12.17;;;;;;;;;;6186323;23;20245;-89
2023/01/19 08:46:48;;;;;;;28.87;12.10;;;;;;;;;;6184435;23;20188;-89
2023/01/19 08:49:54;;;;;;;29.30;11.80;;;;;;;;;;6186392;23;20481;-88
2023/01/19 08:53:00;;;;;;;40.63;13.13;;;;;;;;;;6184223;23;20627;-90
2023/01/19 08:56:11;;;;;;;30.80;12.93;;;;;;;;;;6187426;23;20168;-90
2023/01/19 08:59:16;;;;;;;31.80;11.93;;;;;;;;;;6185484;23;20172;-90
2023/01/19 09:02:30;;;;;;;27.70;12.33;;;;;;;;;;6184355;23;20172;-88
2023/01/19 09:05:37;;;;;;;33.57;12.63;;;;;;;;;;6183848;23;20190;-91
2023/01/19 09:08:43;;;;;;;24.77;11.00;;;;;;;;;;6182764;23;20675;-91
2023/01/19 09:11:52;;;;;;;24.57;11.27;;;;;;;;;;6184292;23;20173;-94
2023/01/19 09:14:58;;;;;;;25.43;10.97;;;;;;;;;;6183487;23;20249;-91
2023/01/19 22:13:15;;;;;;;27.23;10.57;;;;;;;;;;6143745;23;20212;-90
2023/01/19 23:09:11;;;;;;;20.60;8.97;;;;;;;;;;6123961;23;20217;-88
2023/01/19 23:12:34;;;;;;;22.77;9.00;;;;;;;;;;6171429;23;20240;-90
2023/01/19 23:15:39;;;;;;;20.73;8.27;;;;;;;;;;6154179;23;20257;-88
2023/01/19 23:18:45;;;;;;;22.30;9.80;;;;;;;;;;6153788;23;20173;-91
2023/01/19 23:21:51;;;;;;;20.13;8.93;;;;;;;;;;6152227;23;20216;-89
2023/01/19 23:24:58;;;;;;;19.87;8.53;;;;;;;;;;6171315;23;20152;-90
2023/01/19 23:28:04;;;;;;;25.97;9.83;;;;;;;;;;6157201;23;20179;-89
2023/01/19 23:31:16;;;;;;;19.17;9.17;;;;;;;;;;6174638;23;20232;-88
2023/01/19 23:34:22;;;;;;;22.43;9.90;;;;;;;;;;6155484;23;20524;-91
2023/01/19 23:37:28;;;;;;;21.17;9.60;;;;;;;;;;6171537;23;20180;-88
2023/01/19 23:40:37;;;;;;;21.93;9.50;;;;;;;;;;6170419;23;20151;-91
2023/01/19 23:43:42;;;;;;;17.57;8.70;;;;;;;;;;6173032;23;20160;-89
2023/01/19 23:46:48;;;;;;;21.90;9.43;;;;;;;;;;6155709;23;20212;-90
2023/01/19 23:49:53;;;;;;;20.87;9.10;;;;;;;;;;6155001;23;20648;-91
2023/01/19 23:52:58;;;;;;;23.77;9.63;;;;;;;;;;6169977;23;20169;-89
2023/01/19 23:56:12;;;;;;;25.07;10.00;;;;;;;;;;6151477;23;20191;-90
2023/01/19 23:59:17;;;;;;;26.87;9.63;;;;;;;;;;6152052;23;20296;-92
